createdAt,value
2019-02-08T00:01:49.179Z,6.51
2019-02-08T00:05:55.031Z,6.47
2019-02-08T00:10:00.925Z,6.46
2019-02-08T00:14:06.729Z,6.36
2019-02-08T00:18:13.189Z,6.16
2019-02-08T00:22:18.874Z,6.02
2019-02-08T00:26:24.652Z,6.01
2019-02-08T00:30:31.145Z,6.01
2019-02-08T00:34:36.799Z,5.98
2019-02-08T00:38:43.036Z,5.89
2019-02-08T00:42:48.796Z,5.85
2019-02-08T00:46:54.817Z,5.81
2019-02-08T00:51:00.513Z,5.83
2019-02-08T00:55:09.915Z,5.80
2019-02-08T00:59:15.588Z,5.77
2019-02-08T01:03:21.308Z,5.79
2019-02-08T01:07:27.053Z,5.80
2019-02-08T01:11:32.749Z,5.67
2019-02-08T01:15:38.613Z,5.68
2019-02-08T01:19:44.300Z,5.81
2019-02-08T01:23:50.460Z,5.74
2019-02-08T01:27:56.331Z,5.68
2019-02-08T01:32:01.992Z,5.68
2019-02-08T01:36:07.672Z,5.77
2019-02-08T01:40:17.663Z,5.96
2019-02-08T01:44:23.353Z,5.76
2019-02-08T01:48:29.070Z,5.66
2019-02-08T01:52:34.735Z,5.68
2019-02-08T01:56:40.414Z,5.62
2019-02-08T02:00:46.483Z,5.78
2019-02-08T02:04:52.305Z,5.91
2019-02-08T02:08:58.059Z,5.86
2019-02-08T02:13:04.779Z,5.78
2019-02-08T02:17:10.468Z,5.66
2019-02-08T02:21:16.218Z,5.63
2019-02-08T02:25:22.645Z,5.52
2019-02-08T02:29:29.457Z,5.38
2019-02-08T02:33:35.245Z,5.39
2019-02-08T02:37:40.995Z,5.31
2019-02-08T02:41:46.745Z,5.20
2019-02-08T02:45:52.498Z,5.13
2019-02-08T02:49:58.259Z,5.09
2019-02-08T02:54:05.337Z,5.17
2019-02-08T02:58:11.167Z,5.20
2019-02-08T03:02:16.909Z,5.25
2019-02-08T03:06:23.524Z,5.39
2019-02-08T03:10:29.538Z,5.44
2019-02-08T03:14:35.235Z,5.36
2019-02-08T03:18:40.999Z,5.39
2019-02-08T03:22:47.577Z,5.40
2019-02-08T03:26:53.283Z,5.48
2019-02-08T03:30:59.014Z,5.59
2019-02-08T03:35:09.008Z,5.59
2019-02-08T03:39:14.713Z,5.68
2019-02-08T03:43:20.388Z,5.57
2019-02-08T03:47:26.083Z,5.61
2019-02-08T03:51:31.752Z,5.53
2019-02-08T03:55:38.929Z,5.56
2019-02-08T03:59:44.597Z,5.65
2019-02-08T04:03:51.152Z,5.82
2019-02-08T04:07:57.224Z,5.88
2019-02-08T04:12:02.895Z,5.95
2019-02-08T04:16:08.656Z,6.03
2019-02-08T04:20:18.547Z,6.06
2019-02-08T04:24:29.899Z,6.17
2019-02-08T04:28:31.668Z,6.18
2019-02-08T04:32:37.333Z,6.24
2019-02-08T04:36:43.018Z,6.38
2019-02-08T04:40:48.767Z,6.55
2019-02-08T04:44:54.444Z,6.55
2019-02-08T04:49:00.135Z,6.35
2019-02-08T04:53:06.019Z,6.49
2019-02-08T04:57:11.703Z,6.57
2019-02-08T05:01:17.486Z,6.43
2019-02-08T05:05:23.171Z,6.31
2019-02-08T05:09:28.866Z,6.31
2019-02-08T05:13:34.549Z,6.36
2019-02-08T05:17:40.380Z,6.54
2019-02-08T05:21:46.359Z,6.39
2019-02-08T05:25:52.090Z,6.34
2019-02-08T05:29:57.761Z,6.36
2019-02-08T05:34:03.447Z,6.20
2019-02-08T05:38:09.354Z,6.21
2019-02-08T05:42:15.022Z,5.96
2019-02-08T05:46:20.727Z,5.87
2019-02-08T05:50:29.130Z,5.65
2019-02-08T05:54:34.799Z,5.62
2019-02-08T05:58:40.476Z,5.65
2019-02-08T06:02:46.631Z,5.60
2019-02-08T06:06:54.107Z,5.74
2019-02-08T06:11:00.005Z,5.78
2019-02-08T06:15:11.510Z,5.64
2019-02-08T06:19:17.267Z,5.48
2019-02-08T06:23:23.012Z,5.47
2019-02-08T06:27:28.698Z,5.41
2019-02-08T06:31:34.406Z,5.51
2019-02-08T06:35:40.152Z,5.50
2019-02-08T06:39:45.910Z,5.48
2019-02-08T06:43:52.767Z,5.60
2019-02-08T06:47:58.674Z,5.54
2019-02-08T06:52:04.423Z,5.78
2019-02-08T06:56:11.843Z,5.64
2019-02-08T07:00:25.324Z,5.97
2019-02-08T07:04:38.457Z,6.08
2019-02-08T07:08:51.340Z,5.99
2019-02-08T07:12:58.736Z,5.68
2019-02-08T07:17:11.799Z,5.73
2019-02-08T07:21:28.067Z,5.73
2019-02-08T07:25:38.055Z,5.65
2019-02-08T07:29:48.143Z,5.47
2019-02-08T07:33:55.784Z,5.69
2019-02-08T07:38:03.440Z,6.09
2019-02-08T07:42:11.197Z,6.31
2019-02-08T07:46:18.743Z,6.50
2019-02-08T07:50:38.264Z,6.45
2019-02-08T07:54:48.559Z,6.58
2019-02-08T07:58:56.115Z,6.61
2019-02-08T08:03:18.397Z,6.64
2019-02-08T08:07:32.361Z,6.77
2019-02-08T08:11:45.978Z,6.43
2019-02-08T08:15:59.810Z,6.37
2019-02-08T08:20:17.643Z,6.56
2019-02-08T08:24:29.786Z,6.38
2019-02-08T08:28:37.247Z,6.46
2019-02-08T08:32:47.499Z,6.39
2019-02-08T08:37:09.613Z,6.30
2019-02-08T08:42:04.859Z,6.30
2019-02-08T08:46:40.550Z,6.67
2019-02-08T08:51:10.363Z,6.63
2019-02-08T08:55:47.678Z,6.64
2019-02-08T09:00:52.774Z,6.87
2019-02-08T09:05:18.214Z,7.04
2019-02-08T09:09:56.636Z,7.80
2019-02-08T09:14:15.458Z,7.64
2019-02-08T09:19:06.630Z,7.49
2019-02-08T09:23:28.091Z,7.99
2019-02-08T09:28:08.538Z,8.63
2019-02-08T09:32:41.166Z,8.56
2019-02-08T09:37:16.900Z,9.82
2019-02-08T09:41:32.690Z,10.36
2019-02-08T09:46:08.622Z,10.14
2019-02-08T09:50:39.954Z,9.76
2019-02-08T09:55:12.218Z,10.42
2019-02-08T09:59:58.107Z,11.23
2019-02-08T10:04:47.870Z,11.09
2019-02-08T10:09:37.879Z,12.23
2019-02-08T10:14:19.912Z,11.83
2019-02-08T10:18:51.343Z,11.73
2019-02-08T10:23:19.322Z,11.62
2019-02-08T10:28:04.328Z,12.19
2019-02-08T10:32:47.896Z,12.80
2019-02-08T10:37:26.376Z,11.74
2019-02-08T10:42:01.852Z,11.41
2019-02-08T10:46:37.782Z,11.78
2019-02-08T10:51:06.024Z,11.51
2019-02-08T10:55:52.346Z,10.86
2019-02-08T11:06:00.112Z,11.88
2019-02-08T11:10:40.453Z,11.49
2019-02-08T11:14:58.886Z,11.33
2019-02-08T11:19:19.229Z,11.98
2019-02-08T11:23:24.921Z,12.48
2019-02-08T11:27:30.691Z,12.58
2019-02-08T11:31:36.472Z,13.12
2019-02-08T11:35:42.167Z,15.78
2019-02-08T11:39:48.876Z,17.57
2019-02-08T11:43:54.596Z,19.84
2019-02-08T11:48:00.365Z,20.57
2019-02-08T11:52:06.275Z,20.22
2019-02-08T11:56:12.965Z,19.57
2019-02-08T12:00:29.596Z,19.52
2019-02-08T12:04:35.365Z,18.75
2019-02-08T12:08:41.069Z,18.44
2019-02-08T12:12:46.798Z,17.61
2019-02-08T12:16:52.493Z,16.51
2019-02-08T12:20:58.230Z,16.26
2019-02-08T12:25:05.165Z,16.11
2019-02-08T12:29:11.152Z,14.20
2019-02-08T12:33:16.911Z,13.41
2019-02-08T12:37:22.579Z,13.10
2019-02-08T12:41:28.286Z,12.58
2019-02-08T13:39:04.544Z,11.92
2019-02-08T13:43:10.344Z,12.00
2019-02-08T13:47:16.190Z,11.93
2019-02-08T13:51:21.874Z,11.86
2019-02-08T13:55:28.678Z,11.85
2019-02-08T13:59:34.353Z,12.28
2019-02-08T14:03:40.083Z,12.47
2019-02-08T14:07:45.779Z,12.48
2019-02-08T14:11:51.486Z,12.63
2019-02-08T14:15:57.890Z,12.47
2019-02-08T14:20:05.093Z,12.43
2019-02-08T14:24:10.861Z,12.20
2019-02-08T14:28:16.554Z,12.06
2019-02-08T14:32:22.278Z,11.96
2019-02-08T14:36:28.054Z,12.15
2019-02-08T14:40:33.875Z,12.29
2019-02-08T14:44:40.803Z,12.35
2019-02-08T14:48:46.668Z,12.28
2019-02-08T14:52:53.074Z,12.22
2019-02-08T14:56:58.796Z,12.10
2019-02-08T15:01:04.692Z,12.23
2019-02-08T15:05:14.096Z,12.24
2019-02-08T15:09:20.256Z,12.00
2019-02-08T15:13:25.943Z,11.89
2019-02-08T15:17:31.629Z,11.92
2019-02-08T15:21:37.353Z,11.76
2019-02-08T15:25:46.145Z,11.68
2019-02-08T15:29:51.855Z,11.62
2019-02-08T15:33:57.574Z,11.52
2019-02-08T15:38:03.897Z,11.70
2019-02-08T15:42:12.355Z,11.61
2019-02-08T15:46:18.142Z,11.58
2019-02-08T15:50:24.090Z,11.68
2019-02-08T15:54:30.996Z,11.62
2019-02-08T15:58:36.968Z,11.60
2019-02-08T16:02:44.783Z,11.54
2019-02-08T16:06:51.978Z,11.42
2019-02-08T16:10:57.810Z,11.36
2019-02-08T16:15:05.082Z,11.26
2019-02-08T16:19:11.371Z,11.18
2019-02-08T16:23:20.209Z,11.14
2019-02-08T16:27:25.927Z,11.02
2019-02-08T16:31:31.687Z,11.07
2019-02-08T16:35:37.595Z,11.09
2019-02-08T16:39:45.463Z,11.09
2019-02-08T16:43:51.243Z,11.02
2019-02-08T16:47:57.727Z,11.06
2019-02-08T16:52:03.682Z,11.04
2019-02-08T16:56:10.465Z,10.93
2019-02-08T17:00:23.375Z,10.97
2019-02-08T17:04:29.171Z,10.91
2019-02-08T17:08:34.856Z,10.77
2019-02-08T17:12:40.726Z,10.73
2019-02-08T17:16:46.560Z,10.64
2019-02-08T17:20:52.383Z,10.67
2019-02-08T17:24:58.086Z,10.58
2019-02-08T17:29:03.771Z,10.45
2019-02-08T17:33:10.583Z,10.59
2019-02-08T17:37:16.325Z,10.42
2019-02-08T17:41:22.168Z,10.28
2019-02-08T17:45:28.139Z,10.18
2019-02-08T17:49:33.841Z,10.15
2019-02-08T17:53:39.523Z,10.33
2019-02-08T17:57:45.289Z,10.45
2019-02-08T18:01:50.998Z,10.16
2019-02-08T18:05:57.161Z,10.03
2019-02-08T18:10:02.917Z,9.80
2019-02-08T18:14:08.797Z,9.57
2019-02-08T18:18:18.192Z,9.37
2019-02-08T18:22:23.892Z,9.42
2019-02-08T18:26:29.670Z,9.52
2019-02-08T18:30:35.682Z,9.36
2019-02-08T18:34:41.336Z,9.16
2019-02-08T18:38:47.015Z,8.90
2019-02-08T18:42:53.030Z,8.73
2019-02-08T18:46:58.721Z,8.62
2019-02-08T18:51:04.614Z,8.61
2019-02-08T18:55:10.356Z,8.52
2019-02-08T18:59:16.068Z,8.43
2019-02-08T19:08:40.807Z,8.41
2019-02-08T19:12:46.493Z,8.31
2019-02-08T19:16:52.265Z,8.22
2019-02-08T19:20:58.048Z,8.19
2019-02-08T19:25:05.558Z,8.19
2019-02-08T19:29:11.312Z,8.12
2019-02-08T19:33:17.121Z,8.22
2019-02-08T19:37:22.828Z,8.18
2019-02-08T19:41:28.500Z,8.05
2019-02-08T19:45:34.662Z,8.01
2019-02-08T19:49:40.407Z,7.98
2019-02-08T19:53:46.109Z,7.94
2019-02-08T19:57:52.386Z,7.86
2019-02-08T20:01:58.162Z,7.78
2019-02-08T20:06:04.183Z,7.87
2019-02-08T20:10:17.400Z,7.87
2019-02-08T20:14:23.219Z,7.94
2019-02-08T20:18:28.958Z,8.05
2019-02-08T20:22:34.729Z,8.05
2019-02-08T20:26:40.551Z,8.06
2019-02-08T20:30:46.343Z,7.97
2019-02-08T20:34:52.109Z,7.85
2019-02-08T20:38:57.785Z,7.80
2019-02-08T20:43:03.618Z,7.83
2019-02-08T20:47:09.383Z,7.92
2019-02-08T20:51:15.208Z,7.82
2019-02-08T20:55:22.325Z,8.10
2019-02-08T20:59:28.285Z,8.13
2019-02-08T21:03:34.057Z,8.10
2019-02-08T21:07:39.746Z,8.44
2019-02-08T21:11:45.489Z,8.52
2019-02-08T21:15:51.227Z,8.30
2019-02-08T21:19:56.921Z,8.31
2019-02-08T21:24:02.767Z,8.24
2019-02-08T21:28:09.129Z,8.31
2019-02-08T21:32:14.808Z,8.24
2019-02-08T21:36:20.479Z,8.32
2019-02-08T21:40:30.842Z,8.37
2019-02-08T21:44:36.547Z,8.32
2019-02-08T21:48:42.342Z,8.19
2019-02-08T21:52:48.031Z,8.02
2019-02-08T21:56:53.704Z,8.11
2019-02-08T22:00:59.662Z,8.18
2019-02-08T22:05:08.641Z,8.24
2019-02-08T22:09:15.722Z,8.26
2019-02-08T22:13:21.412Z,8.34
2019-02-08T22:17:27.168Z,8.16
2019-02-08T22:21:32.973Z,7.98
2019-02-08T22:25:39.074Z,7.99
2019-02-08T22:29:44.870Z,7.99
2019-02-08T22:33:50.553Z,7.96
2019-02-08T22:37:56.293Z,8.15
2019-02-08T22:42:01.975Z,8.14
2019-02-08T22:46:08.652Z,7.95
2019-02-08T22:50:16.547Z,8.02
2019-02-08T22:54:22.232Z,8.26
2019-02-08T22:58:27.891Z,8.41
2019-02-08T23:02:35.293Z,8.49
2019-02-08T23:06:44.954Z,8.46
2019-02-08T23:11:16.098Z,8.44
2019-02-08T23:15:22.072Z,8.46
2019-02-08T23:19:27.752Z,8.33
2019-02-08T23:23:33.441Z,8.26
2019-02-08T23:27:39.695Z,8.15
2019-02-08T23:31:45.654Z,8.07
2019-02-08T23:35:51.469Z,8.20
2019-02-08T23:39:57.151Z,8.15
2019-02-08T23:44:02.848Z,8.15
2019-02-08T23:48:08.825Z,8.35
2019-02-08T23:52:14.517Z,8.32
2019-02-08T23:56:20.213Z,8.28
